sensor_id;sensor_type;location;lat;lon;timestamp;temperature;humidity
1686;DHT22;840;47.980;7.830;2023-07-28T00:00:46;20.10;99.90
1686;DHT22;840;47.980;7.830;2023-07-28T00:03:13;20.00;99.90
1686;DHT22;840;47.980;7.830;2023-07-28T00:05:40;20.00;99.90
1686;DHT22;840;47.980;7.830;2023-07-28T00:08:07;20.00;99.90
1686;DHT22;840;47.980;7.830;2023-07-28T00:10:39;20.00;99.90
1686;DHT22;840;47.980;7.830;2023-07-28T00:13:06;20.00;99.90
1686;DHT22;840;47.980;7.830;2023-07-28T00:15:33;20.00;99.90
1686;DHT22;840;47.980;7.830;2023-07-28T00:18:01;20.00;99.90
1686;DHT22;840;47.980;7.830;2023-07-28T00:20:28;20.00;99.90
1686;DHT22;840;47.980;7.830;2023-07-28T00:22:55;20.00;99.90
1686;DHT22;840;47.980;7.830;2023-07-28T00:25:22;20.00;99.90
1686;DHT22;840;47.980;7.830;2023-07-28T00:27:49;20.00;99.90
1686;DHT22;840;47.980;7.830;2023-07-28T00:30:16;19.90;99.90
1686;DHT22;840;47.980;7.830;2023-07-28T00:32:43;19.90;99.90
1686;DHT22;840;47.980;7.830;2023-07-28T00:35:11;19.90;99.90
1686;DHT22;840;47.980;7.830;2023-07-28T00:37:38;19.90;99.90
1686;DHT22;840;47.980;7.830;2023-07-28T00:40:06;19.90;99.90
1686;DHT22;840;47.980;7.830;2023-07-28T00:42:33;19.80;99.90
1686;DHT22;840;47.980;7.830;2023-07-28T00:44:59;19.80;99.90
1686;DHT22;840;47.980;7.830;2023-07-28T00:47:26;19.80;99.90
1686;DHT22;840;47.980;7.830;2023-07-28T00:49:53;19.90;99.90
1686;DHT22;840;47.980;7.830;2023-07-28T00:52:21;19.90;99.90
1686;DHT22;840;47.980;7.830;2023-07-28T00:54:48;19.90;99.90
1686;DHT22;840;47.980;7.830;2023-07-28T00:57:14;19.90;99.90
1686;DHT22;840;47.980;7.830;2023-07-28T00:59:43;19.90;99.90
1686;DHT22;840;47.980;7.830;2023-07-28T01:02:10;19.90;99.90
1686;DHT22;840;47.980;7.830;2023-07-28T01:04:37;20.00;99.90
1686;DHT22;840;47.980;7.830;2023-07-28T01:07:09;19.90;99.90
1686;DHT22;840;47.980;7.830;2023-07-28T01:09:43;19.90;99.90
1686;DHT22;840;47.980;7.830;2023-07-28T01:12:11;19.90;99.90
1686;DHT22;840;47.980;7.830;2023-07-28T01:14:38;19.90;99.90
1686;DHT22;840;47.980;7.830;2023-07-28T01:17:05;19.90;99.90
1686;DHT22;840;47.980;7.830;2023-07-28T01:19:32;19.90;99.90
1686;DHT22;840;47.980;7.830;2023-07-28T01:22:13;19.90;99.90
1686;DHT22;840;47.980;7.830;2023-07-28T01:24:51;19.90;99.90
1686;DHT22;840;47.980;7.830;2023-07-28T01:27:19;19.90;99.90
1686;DHT22;840;47.980;7.830;2023-07-28T01:29:47;19.90;99.90
1686;DHT22;840;47.980;7.830;2023-07-28T01:32:14;19.90;99.90
1686;DHT22;840;47.980;7.830;2023-07-28T01:34:41;19.90;99.90
1686;DHT22;840;47.980;7.830;2023-07-28T01:37:08;19.90;99.90
1686;DHT22;840;47.980;7.830;2023-07-28T01:39:34;19.90;99.90
1686;DHT22;840;47.980;7.830;2023-07-28T01:42:02;19.90;99.90
1686;DHT22;840;47.980;7.830;2023-07-28T01:44:30;19.90;99.90
1686;DHT22;840;47.980;7.830;2023-07-28T01:46:56;19.90;99.90
1686;DHT22;840;47.980;7.830;2023-07-28T01:49:23;19.90;99.90
1686;DHT22;840;47.980;7.830;2023-07-28T01:51:50;19.80;99.90
1686;DHT22;840;47.980;7.830;2023-07-28T01:54:16;19.80;99.90
1686;DHT22;840;47.980;7.830;2023-07-28T01:56:43;19.80;99.90
1686;DHT22;840;47.980;7.830;2023-07-28T01:59:10;19.90;99.90
1686;DHT22;840;47.980;7.830;2023-07-28T02:01:39;19.90;99.90
1686;DHT22;840;47.980;7.830;2023-07-28T02:04:06;19.90;99.90
1686;DHT22;840;47.980;7.830;2023-07-28T02:06:33;19.90;99.90
1686;DHT22;840;47.980;7.830;2023-07-28T02:08:59;20.00;99.90
1686;DHT22;840;47.980;7.830;2023-07-28T02:11:26;20.00;99.90
1686;DHT22;840;47.980;7.830;2023-07-28T02:13:53;20.10;99.90
1686;DHT22;840;47.980;7.830;2023-07-28T02:16:20;20.10;99.90
1686;DHT22;840;47.980;7.830;2023-07-28T02:18:48;20.10;99.90
1686;DHT22;840;47.980;7.830;2023-07-28T02:21:14;20.20;99.90
1686;DHT22;840;47.980;7.830;2023-07-28T02:23:41;20.20;99.90
1686;DHT22;840;47.980;7.830;2023-07-28T02:26:08;20.20;99.90
1686;DHT22;840;47.980;7.830;2023-07-28T02:28:35;20.20;99.90
1686;DHT22;840;47.980;7.830;2023-07-28T02:31:02;20.20;99.90
1686;DHT22;840;47.980;7.830;2023-07-28T02:33:29;20.20;99.90
1686;DHT22;840;47.980;7.830;2023-07-28T02:35:58;20.20;99.90
1686;DHT22;840;47.980;7.830;2023-07-28T02:38:25;20.20;99.90
1686;DHT22;840;47.980;7.830;2023-07-28T02:40:51;20.20;99.90
1686;DHT22;840;47.980;7.830;2023-07-28T02:43:18;20.20;99.90
1686;DHT22;840;47.980;7.830;2023-07-28T02:45:48;20.20;99.90
1686;DHT22;840;47.980;7.830;2023-07-28T02:48:15;20.20;99.90
1686;DHT22;840;47.980;7.830;2023-07-28T02:50:45;20.20;99.90
1686;DHT22;840;47.980;7.830;2023-07-28T02:53:14;20.20;99.90
1686;DHT22;840;47.980;7.830;2023-07-28T02:55:41;20.20;99.90
1686;DHT22;840;47.980;7.830;2023-07-28T02:58:08;20.20;99.90
1686;DHT22;840;47.980;7.830;2023-07-28T03:00:37;20.20;99.90
1686;DHT22;840;47.980;7.830;2023-07-28T03:03:04;20.20;99.90
1686;DHT22;840;47.980;7.830;2023-07-28T03:05:31;20.20;99.90
1686;DHT22;840;47.980;7.830;2023-07-28T03:07:58;20.10;99.90
1686;DHT22;840;47.980;7.830;2023-07-28T03:10:26;20.10;99.90
1686;DHT22;840;47.980;7.830;2023-07-28T03:12:53;20.10;99.90
1686;DHT22;840;47.980;7.830;2023-07-28T03:15:20;20.10;99.90
1686;DHT22;840;47.980;7.830;2023-07-28T03:17:48;20.00;99.90
1686;DHT22;840;47.980;7.830;2023-07-28T03:20:15;20.00;99.90
1686;DHT22;840;47.980;7.830;2023-07-28T03:22:41;20.00;99.90
1686;DHT22;840;47.980;7.830;2023-07-28T03:25:08;20.00;99.90
1686;DHT22;840;47.980;7.830;2023-07-28T03:27:37;19.90;99.90
1686;DHT22;840;47.980;7.830;2023-07-28T03:30:04;19.90;99.90
1686;DHT22;840;47.980;7.830;2023-07-28T03:32:34;19.90;99.90
1686;DHT22;840;47.980;7.830;2023-07-28T03:35:01;19.90;99.90
1686;DHT22;840;47.980;7.830;2023-07-28T03:37:30;19.90;99.90
1686;DHT22;840;47.980;7.830;2023-07-28T03:39:57;19.90;99.90
1686;DHT22;840;47.980;7.830;2023-07-28T03:42:24;19.90;99.90
1686;DHT22;840;47.980;7.830;2023-07-28T03:44:52;19.90;99.90
1686;DHT22;840;47.980;7.830;2023-07-28T03:47:19;19.90;99.90
1686;DHT22;840;47.980;7.830;2023-07-28T03:49:46;19.90;99.90
1686;DHT22;840;47.980;7.830;2023-07-28T03:52:13;19.90;99.90
1686;DHT22;840;47.980;7.830;2023-07-28T03:54:39;19.90;99.90
1686;DHT22;840;47.980;7.830;2023-07-28T03:57:08;19.90;99.90
1686;DHT22;840;47.980;7.830;2023-07-28T03:59:35;19.90;99.90
1686;DHT22;840;47.980;7.830;2023-07-28T04:02:03;19.90;99.90
1686;DHT22;840;47.980;7.830;2023-07-28T04:04:30;20.00;99.90
1686;DHT22;840;47.980;7.830;2023-07-28T04:06:57;20.10;99.90
1686;DHT22;840;47.980;7.830;2023-07-28T04:09:24;20.10;99.90
1686;DHT22;840;47.980;7.830;2023-07-28T04:11:50;20.20;99.90
1686;DHT22;840;47.980;7.830;2023-07-28T04:14:17;20.30;99.90
1686;DHT22;840;47.980;7.830;2023-07-28T04:16:44;20.30;99.90
1686;DHT22;840;47.980;7.830;2023-07-28T04:19:12;20.30;99.90
1686;DHT22;840;47.980;7.830;2023-07-28T04:21:39;20.40;99.90
1686;DHT22;840;47.980;7.830;2023-07-28T04:24:06;20.40;99.90
1686;DHT22;840;47.980;7.830;2023-07-28T04:26:33;20.40;99.90
1686;DHT22;840;47.980;7.830;2023-07-28T04:29:00;20.50;99.90
1686;DHT22;840;47.980;7.830;2023-07-28T04:31:27;20.40;99.90
1686;DHT22;840;47.980;7.830;2023-07-28T04:33:53;20.40;99.90
1686;DHT22;840;47.980;7.830;2023-07-28T04:36:21;20.50;99.90
1686;DHT22;840;47.980;7.830;2023-07-28T04:38:48;20.50;99.90
1686;DHT22;840;47.980;7.830;2023-07-28T04:41:15;20.50;99.90
1686;DHT22;840;47.980;7.830;2023-07-28T04:43:42;20.50;99.90
1686;DHT22;840;47.980;7.830;2023-07-28T04:46:09;20.50;99.90
1686;DHT22;840;47.980;7.830;2023-07-28T04:48:36;20.60;99.90
1686;DHT22;840;47.980;7.830;2023-07-28T04:51:02;20.60;99.90
1686;DHT22;840;47.980;7.830;2023-07-28T04:53:31;20.60;99.90
1686;DHT22;840;47.980;7.830;2023-07-28T04:55:57;20.70;99.90
1686;DHT22;840;47.980;7.830;2023-07-28T04:58:24;20.70;99.90
1686;DHT22;840;47.980;7.830;2023-07-28T05:00:51;20.70;99.90
1686;DHT22;840;47.980;7.830;2023-07-28T05:03:18;20.80;99.90
1686;DHT22;840;47.980;7.830;2023-07-28T05:05:44;20.80;99.90
1686;DHT22;840;47.980;7.830;2023-07-28T05:08:11;20.90;99.90
1686;DHT22;840;47.980;7.830;2023-07-28T05:10:41;20.90;99.90
1686;DHT22;840;47.980;7.830;2023-07-28T05:13:08;20.90;99.90
1686;DHT22;840;47.980;7.830;2023-07-28T05:15:35;21.00;99.90
1686;DHT22;840;47.980;7.830;2023-07-28T05:18:02;21.00;99.90
1686;DHT22;840;47.980;7.830;2023-07-28T05:20:29;21.00;99.90
1686;DHT22;840;47.980;7.830;2023-07-28T05:22:56;21.10;99.90
1686;DHT22;840;47.980;7.830;2023-07-28T05:25:22;21.10;99.90
1686;DHT22;840;47.980;7.830;2023-07-28T05:27:51;21.20;99.90
1686;DHT22;840;47.980;7.830;2023-07-28T05:30:17;21.20;99.90
1686;DHT22;840;47.980;7.830;2023-07-28T05:32:44;21.20;99.90
1686;DHT22;840;47.980;7.830;2023-07-28T05:35:11;21.30;99.90
1686;DHT22;840;47.980;7.830;2023-07-28T05:37:38;21.30;99.90
1686;DHT22;840;47.980;7.830;2023-07-28T05:40:06;21.30;99.90
1686;DHT22;840;47.980;7.830;2023-07-28T05:42:33;21.30;99.90
1686;DHT22;840;47.980;7.830;2023-07-28T05:45:01;21.40;99.90
1686;DHT22;840;47.980;7.830;2023-07-28T05:47:28;21.40;99.90
1686;DHT22;840;47.980;7.830;2023-07-28T05:49:55;21.40;99.90
1686;DHT22;840;47.980;7.830;2023-07-28T05:52:22;21.50;99.90
1686;DHT22;840;47.980;7.830;2023-07-28T05:54:49;21.50;99.90
1686;DHT22;840;47.980;7.830;2023-07-28T05:57:16;21.50;99.90
1686;DHT22;840;47.980;7.830;2023-07-28T05:59:42;21.50;99.90
1686;DHT22;840;47.980;7.830;2023-07-28T06:02:11;21.50;99.90
1686;DHT22;840;47.980;7.830;2023-07-28T06:04:38;21.50;99.90
1686;DHT22;840;47.980;7.830;2023-07-28T06:07:05;21.50;99.90
1686;DHT22;840;47.980;7.830;2023-07-28T06:09:32;21.60;99.90
1686;DHT22;840;47.980;7.830;2023-07-28T06:11:59;21.60;99.90
1686;DHT22;840;47.980;7.830;2023-07-28T06:14:26;21.60;99.90
1686;DHT22;840;47.980;7.830;2023-07-28T06:16:53;21.60;99.90
1686;DHT22;840;47.980;7.830;2023-07-28T06:19:21;21.60;99.90
1686;DHT22;840;47.980;7.830;2023-07-28T06:21:49;21.60;99.90
1686;DHT22;840;47.980;7.830;2023-07-28T06:24:16;21.60;99.90
1686;DHT22;840;47.980;7.830;2023-07-28T06:26:43;21.50;99.90
1686;DHT22;840;47.980;7.830;2023-07-28T06:29:10;21.50;99.90
1686;DHT22;840;47.980;7.830;2023-07-28T06:31:37;21.50;99.90
1686;DHT22;840;47.980;7.830;2023-07-28T06:34:03;21.50;99.90
1686;DHT22;840;47.980;7.830;2023-07-28T06:36:31;21.50;99.90
1686;DHT22;840;47.980;7.830;2023-07-28T06:38:58;21.50;99.90
1686;DHT22;840;47.980;7.830;2023-07-28T06:41:25;21.50;99.90
1686;DHT22;840;47.980;7.830;2023-07-28T06:43:51;21.50;99.90
1686;DHT22;840;47.980;7.830;2023-07-28T06:46:18;21.50;99.90
1686;DHT22;840;47.980;7.830;2023-07-28T06:48:45;21.50;99.90
1686;DHT22;840;47.980;7.830;2023-07-28T06:51:12;21.60;99.90
1686;DHT22;840;47.980;7.830;2023-07-28T06:53:40;21.60;99.90
1686;DHT22;840;47.980;7.830;2023-07-28T06:56:07;21.60;99.90
1686;DHT22;840;47.980;7.830;2023-07-28T06:58:34;21.70;99.90
1686;DHT22;840;47.980;7.830;2023-07-28T07:01:00;21.70;99.90
1686;DHT22;840;47.980;7.830;2023-07-28T07:03:28;21.70;99.90
1686;DHT22;840;47.980;7.830;2023-07-28T07:05:54;21.70;99.90
1686;DHT22;840;47.980;7.830;2023-07-28T07:08:21;21.80;99.90
1686;DHT22;840;47.980;7.830;2023-07-28T07:10:49;21.80;99.90
1686;DHT22;840;47.980;7.830;2023-07-28T07:13:17;21.90;99.90
1686;DHT22;840;47.980;7.830;2023-07-28T07:15:44;21.90;99.90
1686;DHT22;840;47.980;7.830;2023-07-28T07:18:10;22.00;99.90
1686;DHT22;840;47.980;7.830;2023-07-28T07:20:38;22.00;99.90
1686;DHT22;840;47.980;7.830;2023-07-28T07:23:05;22.00;99.90
1686;DHT22;840;47.980;7.830;2023-07-28T07:25:32;22.00;99.90
1686;DHT22;840;47.980;7.830;2023-07-28T07:28:00;22.10;99.90
1686;DHT22;840;47.980;7.830;2023-07-28T07:30:27;22.20;99.90
1686;DHT22;840;47.980;7.830;2023-07-28T07:32:53;22.20;99.90
1686;DHT22;840;47.980;7.830;2023-07-28T07:35:20;22.30;99.90
1686;DHT22;840;47.980;7.830;2023-07-28T07:37:47;22.40;99.90
1686;DHT22;840;47.980;7.830;2023-07-28T07:40:14;22.40;99.90
1686;DHT22;840;47.980;7.830;2023-07-28T07:42:41;22.50;99.90
1686;DHT22;840;47.980;7.830;2023-07-28T07:45:11;22.50;99.90
1686;DHT22;840;47.980;7.830;2023-07-28T07:47:38;22.50;99.90
1686;DHT22;840;47.980;7.830;2023-07-28T07:50:06;22.50;99.90
1686;DHT22;840;47.980;7.830;2023-07-28T07:52:34;22.40;99.90
1686;DHT22;840;47.980;7.830;2023-07-28T07:55:01;22.40;99.90
1686;DHT22;840;47.980;7.830;2023-07-28T07:57:28;22.40;99.90
1686;DHT22;840;47.980;7.830;2023-07-28T07:59:56;22.40;99.90
1686;DHT22;840;47.980;7.830;2023-07-28T08:02:24;22.50;99.90
1686;DHT22;840;47.980;7.830;2023-07-28T08:04:51;22.50;99.90
1686;DHT22;840;47.980;7.830;2023-07-28T08:07:19;22.60;99.90
1686;DHT22;840;47.980;7.830;2023-07-28T08:09:46;22.60;99.90
1686;DHT22;840;47.980;7.830;2023-07-28T08:12:13;22.60;99.90
1686;DHT22;840;47.980;7.830;2023-07-28T08:14:41;22.60;99.90
1686;DHT22;840;47.980;7.830;2023-07-28T08:17:08;22.70;99.90
1686;DHT22;840;47.980;7.830;2023-07-28T08:19:36;22.70;99.90
1686;DHT22;840;47.980;7.830;2023-07-28T08:22:03;22.70;99.90
1686;DHT22;840;47.980;7.830;2023-07-28T08:24:31;22.80;99.90
1686;DHT22;840;47.980;7.830;2023-07-28T08:26:58;22.80;99.90
1686;DHT22;840;47.980;7.830;2023-07-28T08:29:24;22.90;99.90
1686;DHT22;840;47.980;7.830;2023-07-28T08:31:52;22.90;99.90
1686;DHT22;840;47.980;7.830;2023-07-28T08:34:19;22.90;99.90
1686;DHT22;840;47.980;7.830;2023-07-28T08:36:47;23.00;99.90
1686;DHT22;840;47.980;7.830;2023-07-28T08:39:13;23.00;99.90
1686;DHT22;840;47.980;7.830;2023-07-28T08:41:41;23.00;99.90
1686;DHT22;840;47.980;7.830;2023-07-28T08:44:08;23.10;99.90
1686;DHT22;840;47.980;7.830;2023-07-28T08:46:35;23.20;99.90
1686;DHT22;840;47.980;7.830;2023-07-28T08:49:02;23.30;99.90
1686;DHT22;840;47.980;7.830;2023-07-28T08:51:29;23.40;99.90
1686;DHT22;840;47.980;7.830;2023-07-28T08:53:57;23.50;99.90
1686;DHT22;840;47.980;7.830;2023-07-28T08:56:24;23.50;99.90
1686;DHT22;840;47.980;7.830;2023-07-28T08:58:57;23.60;99.90
1686;DHT22;840;47.980;7.830;2023-07-28T09:01:24;23.60;99.90
1686;DHT22;840;47.980;7.830;2023-07-28T09:03:50;23.60;99.90
1686;DHT22;840;47.980;7.830;2023-07-28T09:06:17;23.60;99.90
1686;DHT22;840;47.980;7.830;2023-07-28T09:08:45;23.60;99.90
1686;DHT22;840;47.980;7.830;2023-07-28T09:11:13;23.60;99.90
1686;DHT22;840;47.980;7.830;2023-07-28T09:13:41;23.60;99.90
1686;DHT22;840;47.980;7.830;2023-07-28T09:16:16;23.60;99.90
1686;DHT22;840;47.980;7.830;2023-07-28T09:18:43;23.70;99.90
1686;DHT22;840;47.980;7.830;2023-07-28T09:21:16;23.70;99.90
1686;DHT22;840;47.980;7.830;2023-07-28T09:23:44;23.70;99.90
1686;DHT22;840;47.980;7.830;2023-07-28T09:26:13;23.70;99.90
1686;DHT22;840;47.980;7.830;2023-07-28T09:28:41;23.70;99.90
1686;DHT22;840;47.980;7.830;2023-07-28T09:31:08;23.70;99.90
1686;DHT22;840;47.980;7.830;2023-07-28T09:33:36;23.80;99.90
1686;DHT22;840;47.980;7.830;2023-07-28T09:36:08;23.80;99.90
1686;DHT22;840;47.980;7.830;2023-07-28T09:38:36;23.80;99.90
1686;DHT22;840;47.980;7.830;2023-07-28T09:41:04;23.90;99.90
1686;DHT22;840;47.980;7.830;2023-07-28T09:43:34;24.00;99.90
1686;DHT22;840;47.980;7.830;2023-07-28T09:46:03;24.10;99.90
1686;DHT22;840;47.980;7.830;2023-07-28T09:48:32;24.20;99.90
1686;DHT22;840;47.980;7.830;2023-07-28T09:51:05;24.20;99.90
1686;DHT22;840;47.980;7.830;2023-07-28T09:53:35;24.30;99.90
1686;DHT22;840;47.980;7.830;2023-07-28T09:56:04;24.40;99.90
1686;DHT22;840;47.980;7.830;2023-07-28T09:58:35;24.50;99.90
1686;DHT22;840;47.980;7.830;2023-07-28T10:01:05;24.60;99.90
1686;DHT22;840;47.980;7.830;2023-07-28T10:03:32;24.70;99.90
1686;DHT22;840;47.980;7.830;2023-07-28T10:05:59;24.80;99.90
1686;DHT22;840;47.980;7.830;2023-07-28T10:08:27;24.90;99.90
1686;DHT22;840;47.980;7.830;2023-07-28T10:10:54;24.90;99.90
1686;DHT22;840;47.980;7.830;2023-07-28T10:13:22;24.90;99.90
1686;DHT22;840;47.980;7.830;2023-07-28T10:15:50;24.90;99.90
1686;DHT22;840;47.980;7.830;2023-07-28T10:18:20;25.00;99.90
1686;DHT22;840;47.980;7.830;2023-07-28T10:20:47;25.10;99.90
1686;DHT22;840;47.980;7.830;2023-07-28T10:23:16;25.10;99.90
1686;DHT22;840;47.980;7.830;2023-07-28T10:25:43;25.10;99.90
1686;DHT22;840;47.980;7.830;2023-07-28T10:28:26;25.20;99.90
1686;DHT22;840;47.980;7.830;2023-07-28T10:30:55;25.10;99.90
1686;DHT22;840;47.980;7.830;2023-07-28T10:33:32;25.10;99.90
1686;DHT22;840;47.980;7.830;2023-07-28T10:36:10;25.10;99.90
1686;DHT22;840;47.980;7.830;2023-07-28T10:38:37;25.10;99.90
1686;DHT22;840;47.980;7.830;2023-07-28T10:41:15;25.10;99.90
1686;DHT22;840;47.980;7.830;2023-07-28T10:43:45;25.10;99.90
1686;DHT22;840;47.980;7.830;2023-07-28T10:46:16;25.00;99.90
1686;DHT22;840;47.980;7.830;2023-07-28T10:48:45;24.90;99.90
1686;DHT22;840;47.980;7.830;2023-07-28T10:51:12;24.90;99.90
1686;DHT22;840;47.980;7.830;2023-07-28T10:53:46;24.90;99.90
1686;DHT22;840;47.980;7.830;2023-07-28T10:56:16;24.90;99.90
1686;DHT22;840;47.980;7.830;2023-07-28T10:58:44;24.90;99.90
1686;DHT22;840;47.980;7.830;2023-07-28T11:01:11;24.80;99.90
1686;DHT22;840;47.980;7.830;2023-07-28T11:03:40;24.80;99.90
1686;DHT22;840;47.980;7.830;2023-07-28T11:06:06;24.80;99.90
1686;DHT22;840;47.980;7.830;2023-07-28T11:08:33;24.80;99.90
1686;DHT22;840;47.980;7.830;2023-07-28T11:11:04;24.80;99.90
1686;DHT22;840;47.980;7.830;2023-07-28T11:13:31;24.90;99.90
1686;DHT22;840;47.980;7.830;2023-07-28T11:15:58;24.90;99.90
1686;DHT22;840;47.980;7.830;2023-07-28T11:18:25;25.00;99.90
1686;DHT22;840;47.980;7.830;2023-07-28T11:20:53;25.10;99.90
1686;DHT22;840;47.980;7.830;2023-07-28T11:23:20;25.20;99.90
1686;DHT22;840;47.980;7.830;2023-07-28T11:25:47;25.40;99.90
1686;DHT22;840;47.980;7.830;2023-07-28T11:28:13;25.50;99.90
1686;DHT22;840;47.980;7.830;2023-07-28T11:30:40;25.60;99.90
1686;DHT22;840;47.980;7.830;2023-07-28T11:33:09;25.70;99.90
1686;DHT22;840;47.980;7.830;2023-07-28T11:35:38;25.80;99.90
1686;DHT22;840;47.980;7.830;2023-07-28T11:38:07;25.80;99.90
1686;DHT22;840;47.980;7.830;2023-07-28T11:40:35;25.70;99.90
1686;DHT22;840;47.980;7.830;2023-07-28T11:43:02;25.70;99.90
1686;DHT22;840;47.980;7.830;2023-07-28T11:45:30;25.70;99.90
1686;DHT22;840;47.980;7.830;2023-07-28T11:47:58;25.70;99.90
1686;DHT22;840;47.980;7.830;2023-07-28T11:50:26;25.60;99.90
1686;DHT22;840;47.980;7.830;2023-07-28T11:52:53;25.70;99.90
1686;DHT22;840;47.980;7.830;2023-07-28T11:55:23;25.70;99.90
1686;DHT22;840;47.980;7.830;2023-07-28T11:57:51;25.70;99.90
1686;DHT22;840;47.980;7.830;2023-07-28T12:00:18;25.60;99.90
1686;DHT22;840;47.980;7.830;2023-07-28T12:03:00;25.60;99.90
1686;DHT22;840;47.980;7.830;2023-07-28T12:05:29;25.60;99.90
1686;DHT22;840;47.980;7.830;2023-07-28T12:07:56;25.50;99.90
1686;DHT22;840;47.980;7.830;2023-07-28T12:10:26;25.50;99.90
1686;DHT22;840;47.980;7.830;2023-07-28T12:12:53;25.50;99.90
1686;DHT22;840;47.980;7.830;2023-07-28T12:15:24;25.50;99.90
1686;DHT22;840;47.980;7.830;2023-07-28T12:18:11;25.40;99.90
1686;DHT22;840;47.980;7.830;2023-07-28T12:20:39;25.30;99.90
1686;DHT22;840;47.980;7.830;2023-07-28T12:23:07;25.20;99.90
1686;DHT22;840;47.980;7.830;2023-07-28T12:25:36;25.10;99.90
1686;DHT22;840;47.980;7.830;2023-07-28T12:28:03;25.10;99.90
1686;DHT22;840;47.980;7.830;2023-07-28T12:30:30;25.00;99.90
1686;DHT22;840;47.980;7.830;2023-07-28T12:32:57;24.90;99.90
1686;DHT22;840;47.980;7.830;2023-07-28T12:35:25;24.90;99.90
1686;DHT22;840;47.980;7.830;2023-07-28T12:37:56;24.80;99.90
1686;DHT22;840;47.980;7.830;2023-07-28T12:40:25;24.80;99.90
1686;DHT22;840;47.980;7.830;2023-07-28T12:42:54;24.80;99.90
1686;DHT22;840;47.980;7.830;2023-07-28T12:45:23;24.80;99.90
1686;DHT22;840;47.980;7.830;2023-07-28T12:47:51;24.70;99.90
1686;DHT22;840;47.980;7.830;2023-07-28T12:50:18;24.80;99.90
1686;DHT22;840;47.980;7.830;2023-07-28T12:52:46;24.80;99.90
1686;DHT22;840;47.980;7.830;2023-07-28T12:55:12;24.70;99.90
1686;DHT22;840;47.980;7.830;2023-07-28T12:57:40;24.60;99.90
1686;DHT22;840;47.980;7.830;2023-07-28T13:00:09;24.40;99.90
1686;DHT22;840;47.980;7.830;2023-07-28T13:02:39;24.30;99.90
1686;DHT22;840;47.980;7.830;2023-07-28T13:05:06;24.20;99.90
1686;DHT22;840;47.980;7.830;2023-07-28T13:07:34;24.10;99.90
1686;DHT22;840;47.980;7.830;2023-07-28T13:10:02;23.90;99.90
1686;DHT22;840;47.980;7.830;2023-07-28T13:12:29;23.90;99.90
1686;DHT22;840;47.980;7.830;2023-07-28T13:14:56;23.90;99.90
1686;DHT22;840;47.980;7.830;2023-07-28T13:17:24;23.90;99.90
1686;DHT22;840;47.980;7.830;2023-07-28T13:19:51;23.90;99.90
1686;DHT22;840;47.980;7.830;2023-07-28T13:22:18;23.90;99.90
1686;DHT22;840;47.980;7.830;2023-07-28T13:24:44;24.00;99.90
1686;DHT22;840;47.980;7.830;2023-07-28T13:27:11;24.00;99.90
1686;DHT22;840;47.980;7.830;2023-07-28T13:29:38;24.00;99.90
1686;DHT22;840;47.980;7.830;2023-07-28T13:32:15;23.90;99.90
1686;DHT22;840;47.980;7.830;2023-07-28T13:34:44;23.90;99.90
1686;DHT22;840;47.980;7.830;2023-07-28T13:37:10;23.80;99.90
1686;DHT22;840;47.980;7.830;2023-07-28T13:39:37;23.80;99.90
1686;DHT22;840;47.980;7.830;2023-07-28T13:42:04;23.80;99.90
1686;DHT22;840;47.980;7.830;2023-07-28T13:44:31;23.90;99.90
1686;DHT22;840;47.980;7.830;2023-07-28T13:46:58;23.90;99.90
1686;DHT22;840;47.980;7.830;2023-07-28T13:49:25;24.00;99.90
1686;DHT22;840;47.980;7.830;2023-07-28T13:51:54;24.10;99.90
1686;DHT22;840;47.980;7.830;2023-07-28T13:54:22;24.10;99.90
1686;DHT22;840;47.980;7.830;2023-07-28T13:56:48;24.20;99.90
1686;DHT22;840;47.980;7.830;2023-07-28T13:59:15;24.30;99.90
1686;DHT22;840;47.980;7.830;2023-07-28T14:01:42;24.50;99.90
1686;DHT22;840;47.980;7.830;2023-07-28T14:04:08;24.60;99.90
1686;DHT22;840;47.980;7.830;2023-07-28T14:06:35;24.70;99.90
1686;DHT22;840;47.980;7.830;2023-07-28T14:09:03;24.80;99.90
1686;DHT22;840;47.980;7.830;2023-07-28T14:11:30;24.80;99.90
1686;DHT22;840;47.980;7.830;2023-07-28T14:13:57;24.80;99.90
1686;DHT22;840;47.980;7.830;2023-07-28T14:16:23;24.80;99.90
1686;DHT22;840;47.980;7.830;2023-07-28T14:18:51;24.90;99.90
1686;DHT22;840;47.980;7.830;2023-07-28T14:21:18;25.00;99.90
1686;DHT22;840;47.980;7.830;2023-07-28T14:23:45;25.10;99.90
1686;DHT22;840;47.980;7.830;2023-07-28T14:26:13;25.10;99.90
1686;DHT22;840;47.980;7.830;2023-07-28T14:28:41;25.20;99.90
1686;DHT22;840;47.980;7.830;2023-07-28T14:31:08;25.20;99.90
1686;DHT22;840;47.980;7.830;2023-07-28T14:33:34;25.20;99.90
1686;DHT22;840;47.980;7.830;2023-07-28T14:36:01;25.20;99.90
1686;DHT22;840;47.980;7.830;2023-07-28T14:38:28;25.20;99.90
1686;DHT22;840;47.980;7.830;2023-07-28T14:40:55;25.20;99.90
1686;DHT22;840;47.980;7.830;2023-07-28T14:43:23;25.10;99.90
1686;DHT22;840;47.980;7.830;2023-07-28T14:45:50;25.20;99.90
1686;DHT22;840;47.980;7.830;2023-07-28T14:48:17;25.20;99.90
1686;DHT22;840;47.980;7.830;2023-07-28T14:50:44;25.30;99.90
1686;DHT22;840;47.980;7.830;2023-07-28T14:53:33;25.30;99.90
1686;DHT22;840;47.980;7.830;2023-07-28T14:56:00;25.20;99.90
1686;DHT22;840;47.980;7.830;2023-07-28T14:58:29;25.20;99.90
1686;DHT22;840;47.980;7.830;2023-07-28T15:00:57;25.10;99.90
1686;DHT22;840;47.980;7.830;2023-07-28T15:03:27;25.00;99.90
1686;DHT22;840;47.980;7.830;2023-07-28T15:05:54;25.00;99.90
1686;DHT22;840;47.980;7.830;2023-07-28T15:08:21;24.90;99.90
1686;DHT22;840;47.980;7.830;2023-07-28T15:10:48;24.80;99.90
1686;DHT22;840;47.980;7.830;2023-07-28T15:13:15;24.80;99.90
1686;DHT22;840;47.980;7.830;2023-07-28T15:15:44;24.70;99.90
1686;DHT22;840;47.980;7.830;2023-07-28T15:18:11;24.60;99.90
1686;DHT22;840;47.980;7.830;2023-07-28T15:20:39;24.50;99.90
1686;DHT22;840;47.980;7.830;2023-07-28T15:23:06;24.40;99.90
1686;DHT22;840;47.980;7.830;2023-07-28T15:25:33;24.30;99.90
1686;DHT22;840;47.980;7.830;2023-07-28T15:28:00;24.20;99.90
1686;DHT22;840;47.980;7.830;2023-07-28T15:30:27;24.10;99.90
1686;DHT22;840;47.980;7.830;2023-07-28T15:32:55;24.00;99.90
1686;DHT22;840;47.980;7.830;2023-07-28T15:35:22;23.90;99.90
1686;DHT22;840;47.980;7.830;2023-07-28T15:37:49;23.90;99.90
1686;DHT22;840;47.980;7.830;2023-07-28T15:40:16;23.80;99.90
1686;DHT22;840;47.980;7.830;2023-07-28T15:42:43;23.70;99.90
1686;DHT22;840;47.980;7.830;2023-07-28T15:45:10;23.60;99.90
1686;DHT22;840;47.980;7.830;2023-07-28T15:47:37;23.50;99.90
1686;DHT22;840;47.980;7.830;2023-07-28T15:50:07;23.50;99.90
1686;DHT22;840;47.980;7.830;2023-07-28T15:52:33;23.30;99.90
1686;DHT22;840;47.980;7.830;2023-07-28T15:55:00;23.00;99.90
1686;DHT22;840;47.980;7.830;2023-07-28T15:57:28;22.70;99.90
1686;DHT22;840;47.980;7.830;2023-07-28T15:59:56;22.40;99.90
1686;DHT22;840;47.980;7.830;2023-07-28T16:02:22;22.10;99.90
1686;DHT22;840;47.980;7.830;2023-07-28T16:04:49;21.80;99.90
1686;DHT22;840;47.980;7.830;2023-07-28T16:07:17;21.60;99.90
1686;DHT22;840;47.980;7.830;2023-07-28T16:09:44;21.60;99.90
1686;DHT22;840;47.980;7.830;2023-07-28T16:12:11;21.60;99.90
1686;DHT22;840;47.980;7.830;2023-07-28T16:14:38;21.60;99.90
1686;DHT22;840;47.980;7.830;2023-07-28T16:17:05;21.70;99.90
1686;DHT22;840;47.980;7.830;2023-07-28T16:19:32;21.80;99.90